Time;durP1;ratioP1;P1;durP2;ratioP2;P2;SDS_P1;SDS_P2;PMS_P1;PMS_P2;Temp;Humidity;BMP_temperature;BMP_pressure;BME280_temperature;BME280_humidity;BME280_pressure;Samples;Min_cycle;Max_cycle;Signal;HPM_P1;HPM_P2
2022/08/24 00:01:56;;;;;;;1.95;1.30;;;20.40;99.90;;;;;;4992553;28;20183;-52
2022/08/24 00:04:22;;;;;;;3.70;1.70;;;20.40;99.90;;;;;;4992384;28;20174;-51
2022/08/24 00:06:48;;;;;;;2.67;1.52;;;20.40;99.90;;;;;;4992310;28;20198;-52
2022/08/24 00:09:14;;;;;;;1.80;1.50;;;20.40;99.90;;;;;;4992400;28;20198;-52
2022/08/24 00:11:40;;;;;;;3.92;1.45;;;20.40;99.90;;;;;;4992402;28;20720;-52
2022/08/24 00:14:06;;;;;;;2.08;1.30;;;20.40;99.90;;;;;;4991069;28;20277;-52
2022/08/24 00:16:34;;;;;;;2.28;1.52;;;20.40;99.90;;;;;;4992168;28;20186;-52
2022/08/24 00:19:00;;;;;;;3.72;1.23;;;20.40;99.90;;;;;;4991221;28;20179;-52
2022/08/24 00:21:25;;;;;;;1.92;1.17;;;20.40;99.90;;;;;;4974604;28;20701;-51
2022/08/24 00:23:52;;;;;;;2.95;1.48;;;20.40;99.90;;;;;;4992186;28;20171;-52
2022/08/24 00:26:18;;;;;;;2.22;1.50;;;20.30;99.90;;;;;;4991800;28;20231;-52
2022/08/24 00:28:44;;;;;;;1.95;1.00;;;20.30;99.90;;;;;;4992044;28;20179;-52
2022/08/24 00:31:10;;;;;;;3.58;1.30;;;20.30;99.90;;;;;;4992038;28;20175;-52
2022/08/24 00:33:38;;;;;;;4.60;1.30;;;20.40;99.90;;;;;;4991851;28;20665;-52
2022/08/24 00:36:04;;;;;;;2.55;1.33;;;20.40;99.90;;;;;;4992199;28;20174;-52
2022/08/24 00:38:31;;;;;;;1.45;1.30;;;20.40;99.90;;;;;;4991803;28;20175;-52
2022/08/24 00:40:56;;;;;;;2.88;1.23;;;20.40;99.90;;;;;;4991637;28;20654;-52
2022/08/24 00:43:24;;;;;;;2.58;1.40;;;20.40;99.90;;;;;;4991792;28;20180;-50
2022/08/24 00:45:53;;;;;;;1.95;1.08;;;20.40;99.90;;;;;;4991753;28;20262;-51
2022/08/24 00:48:26;;;;;;;2.97;1.60;;;20.40;99.90;;;;;;4991686;28;20207;-51
2022/08/24 00:51:03;;;;;;;2.83;1.35;;;20.40;99.90;;;;;;4991735;28;20626;-51
2022/08/24 00:53:37;;;;;;;4.03;1.85;;;20.30;99.90;;;;;;4991774;28;20225;-51
2022/08/24 00:56:09;;;;;;;1.80;1.40;;;20.30;99.90;;;;;;4991640;28;20253;-51
2022/08/24 00:58:40;;;;;;;1.60;1.33;;;20.30;99.90;;;;;;4991511;28;20205;-51
2022/08/24 01:01:08;;;;;;;2.20;1.30;;;20.30;99.90;;;;;;4991534;28;20177;-51
2022/08/24 01:03:36;;;;;;;1.30;1.20;;;20.30;99.90;;;;;;4991635;28;20179;-51
2022/08/24 01:06:02;;;;;;;2.33;1.10;;;20.40;99.90;;;;;;4991437;28;20297;-51
2022/08/24 01:08:28;;;;;;;1.88;1.20;;;20.40;99.90;;;;;;4991539;28;20215;-51
2022/08/24 01:10:59;;;;;;;2.20;1.25;;;20.30;99.90;;;;;;4991512;28;20186;-51
2022/08/24 01:13:25;;;;;;;4.00;1.50;;;20.30;99.90;;;;;;4991837;28;20175;-51
2022/08/24 01:15:54;;;;;;;3.13;1.48;;;20.40;99.90;;;;;;4991535;28;20255;-51
2022/08/24 01:21:29;;;;;;;3.72;1.60;;;20.40;99.90;;;;;;4991766;28;20186;-51
2022/08/24 01:24:01;;;;;;;3.13;1.50;;;20.30;99.90;;;;;;4974177;28;20167;-51
2022/08/24 01:26:35;;;;;;;3.60;1.70;;;20.40;99.90;;;;;;4991254;28;20266;-51
2022/08/24 01:29:06;;;;;;;4.35;1.90;;;20.30;99.90;;;;;;4991428;28;20672;-51
2022/08/24 01:31:32;;;;;;;3.70;1.67;;;20.30;99.90;;;;;;4994156;28;20592;-52
2022/08/24 01:33:58;;;;;;;4.25;1.60;;;20.30;99.90;;;;;;4995232;28;20198;-51
2022/08/24 01:36:32;;;;;;;1.92;1.55;;;20.30;99.90;;;;;;4995237;28;20206;-52
2022/08/24 01:39:09;;;;;;;1.98;1.40;;;20.30;99.90;;;;;;4995324;28;20278;-52
2022/08/24 01:41:35;;;;;;;5.47;2.00;;;20.30;99.90;;;;;;4995194;28;20189;-51
2022/08/24 01:44:00;;;;;;;3.10;1.77;;;20.30;99.90;;;;;;4995158;28;20586;-52
2022/08/24 01:46:26;;;;;;;3.25;1.70;;;20.20;99.90;;;;;;4994887;28;20179;-51
2022/08/24 01:48:52;;;;;;;4.93;1.80;;;20.20;99.90;;;;;;4994898;28;20249;-51
2022/08/24 01:51:19;;;;;;;4.45;2.10;;;20.10;99.90;;;;;;4995098;28;20168;-51
2022/08/24 01:53:45;;;;;;;2.90;1.80;;;20.10;99.90;;;;;;4994914;28;20187;-52
2022/08/24 01:56:11;;;;;;;3.85;1.90;;;20.10;99.90;;;;;;4994868;28;20518;-51
2022/08/24 01:58:46;;;;;;;3.88;2.05;;;20.10;99.90;;;;;;4994826;28;20246;-52
2022/08/24 02:01:13;;;;;;;3.42;2.17;;;20.10;99.90;;;;;;4994644;28;20306;-51
2022/08/24 02:03:38;;;;;;;5.78;2.20;;;20.10;99.90;;;;;;4994820;28;20186;-52
2022/08/24 02:06:05;;;;;;;4.45;2.00;;;20.10;99.90;;;;;;4994612;28;20179;-52
2022/08/24 02:08:35;;;;;;;4.90;1.75;;;20.20;99.90;;;;;;4994442;28;20207;-52
2022/08/24 02:11:05;;;;;;;4.72;1.73;;;20.20;99.90;;;;;;4994575;28;20178;-52
2022/08/24 02:13:31;;;;;;;6.38;2.10;;;20.20;99.90;;;;;;4994353;28;20198;-52
2022/08/24 02:15:57;;;;;;;4.25;2.05;;;20.20;99.90;;;;;;4994478;28;20187;-52
2022/08/24 02:18:22;;;;;;;7.13;2.05;;;20.20;99.90;;;;;;4994497;28;20225;-52
2022/08/24 02:20:48;;;;;;;5.53;1.55;;;20.10;99.90;;;;;;4994374;28;20582;-51
2022/08/24 02:23:15;;;;;;;5.43;2.10;;;20.10;99.90;;;;;;4994216;28;20207;-52
2022/08/24 02:25:40;;;;;;;6.75;2.30;;;20.10;99.90;;;;;;4994165;28;20227;-52
2022/08/24 02:28:06;;;;;;;5.72;2.20;;;20.10;99.90;;;;;;4994287;28;20728;-52
2022/08/24 02:30:32;;;;;;;2.70;1.83;;;20.10;99.90;;;;;;4994166;28;20206;-52
2022/08/24 02:32:59;;;;;;;5.80;2.00;;;20.10;99.90;;;;;;4994244;28;20175;-52
2022/08/24 02:35:26;;;;;;;4.40;2.00;;;20.10;99.90;;;;;;4994157;28;20218;-52
2022/08/24 02:37:52;;;;;;;4.50;1.90;;;20.10;99.90;;;;;;4994093;28;20221;-52
2022/08/24 02:40:17;;;;;;;3.90;2.13;;;20.10;99.90;;;;;;4994059;28;20171;-52
2022/08/24 02:42:43;;;;;;;4.10;1.80;;;20.10;99.90;;;;;;4992938;28;20182;-52
2022/08/24 02:45:10;;;;;;;4.25;1.77;;;20.10;99.90;;;;;;4993978;28;20163;-52
2022/08/24 02:47:36;;;;;;;4.30;1.73;;;20.10;99.90;;;;;;4993852;28;20578;-53
2022/08/24 02:50:03;;;;;;;4.18;2.03;;;20.10;99.90;;;;;;4993742;28;20186;-51
2022/08/24 02:52:29;;;;;;;3.97;1.70;;;20.00;99.90;;;;;;4993780;28;20171;-51
2022/08/24 02:54:54;;;;;;;5.90;2.05;;;20.00;99.90;;;;;;4994164;28;20198;-52
2022/08/24 02:57:20;;;;;;;4.00;2.00;;;20.00;99.90;;;;;;4993654;28;20520;-52
2022/08/24 02:59:46;;;;;;;3.60;1.65;;;20.10;99.90;;;;;;4993616;28;20176;-52
2022/08/24 03:02:11;;;;;;;5.00;1.65;;;20.10;99.90;;;;;;4993635;28;20186;-52
2022/08/24 03:04:37;;;;;;;5.97;1.83;;;20.10;99.90;;;;;;4992307;28;20638;-52
2022/08/24 03:07:03;;;;;;;2.03;1.50;;;20.00;99.90;;;;;;4993458;28;20202;-52
2022/08/24 03:09:29;;;;;;;3.42;1.50;;;20.00;99.90;;;;;;4993510;28;20638;-52
2022/08/24 03:11:55;;;;;;;4.32;1.55;;;20.00;99.90;;;;;;4993395;28;20231;-51
2022/08/24 03:14:20;;;;;;;3.13;1.33;;;20.00;99.90;;;;;;4993387;28;20180;-52
2022/08/24 03:16:46;;;;;;;2.30;1.38;;;20.00;99.90;;;;;;4993306;28;20597;-52
2022/08/24 03:19:14;;;;;;;2.22;0.90;;;20.00;99.90;;;;;;4993274;28;20199;-52
2022/08/24 03:21:40;;;;;;;1.85;1.05;;;20.00;99.90;;;;;;4993292;28;20179;-51
2022/08/24 03:24:06;;;;;;;2.63;1.42;;;20.00;99.90;;;;;;4993146;28;20178;-52
2022/08/24 03:26:32;;;;;;;3.35;1.30;;;20.00;99.90;;;;;;4992754;28;20278;-51
2022/08/24 03:28:58;;;;;;;2.55;1.38;;;20.00;99.90;;;;;;4993479;28;20669;-51
2022/08/24 03:31:23;;;;;;;3.03;1.15;;;20.00;99.90;;;;;;4992935;28;20552;-52
2022/08/24 03:33:50;;;;;;;2.58;1.70;;;19.90;99.90;;;;;;4992994;28;20530;-52
2022/08/24 03:36:16;;;;;;;3.53;1.30;;;19.90;99.90;;;;;;4993072;28;20254;-51
2022/08/24 03:38:42;;;;;;;1.80;1.40;;;20.00;99.90;;;;;;4992962;28;20171;-52
2022/08/24 03:41:08;;;;;;;2.15;1.27;;;19.90;99.90;;;;;;4992717;28;20171;-51
2022/08/24 03:43:45;;;;;;;3.70;1.67;;;19.90;99.90;;;;;;4992859;28;20555;-51
2022/08/24 03:46:13;;;;;;;3.28;1.30;;;19.90;99.90;;;;;;4992779;28;20638;-51
2022/08/24 03:48:39;;;;;;;3.97;1.63;;;19.90;99.90;;;;;;4992630;28;20227;-51
2022/08/24 03:51:06;;;;;;;3.05;1.60;;;19.90;99.90;;;;;;4992597;28;20626;-51
2022/08/24 03:53:32;;;;;;;2.00;1.40;;;20.00;99.90;;;;;;4992391;28;20182;-51
2022/08/24 03:55:58;;;;;;;4.53;1.70;;;19.90;99.90;;;;;;4993131;28;20179;-52
2022/08/24 03:58:24;;;;;;;3.35;1.70;;;20.00;99.90;;;;;;4992581;28;20680;-51
2022/08/24 04:00:49;;;;;;;2.10;1.42;;;20.00;99.90;;;;;;4992420;28;20543;-52
2022/08/24 04:03:15;;;;;;;2.15;1.70;;;20.00;99.90;;;;;;4992422;28;20633;-51
2022/08/24 04:05:41;;;;;;;4.03;1.52;;;19.90;99.90;;;;;;4992419;28;20175;-52
2022/08/24 04:08:08;;;;;;;3.75;1.95;;;19.90;99.90;;;;;;4992254;28;20226;-51
2022/08/24 04:10:34;;;;;;;4.63;1.98;;;19.90;99.90;;;;;;4992298;28;20199;-51
2022/08/24 04:13:00;;;;;;;3.10;1.98;;;19.90;99.90;;;;;;4992248;28;20202;-52
2022/08/24 04:15:26;;;;;;;3.90;2.00;;;20.00;99.90;;;;;;4992429;28;20176;-52
2022/08/24 04:17:52;;;;;;;4.45;1.80;;;20.00;99.90;;;;;;4975008;28;20208;-52
2022/08/24 04:20:18;;;;;;;4.68;2.00;;;20.00;99.90;;;;;;4992213;28;20262;-52
2022/08/24 04:22:43;;;;;;;3.08;2.15;;;20.00;99.90;;;;;;4992020;28;20222;-51
2022/08/24 04:25:10;;;;;;;3.80;1.90;;;20.00;99.90;;;;;;4991973;28;20242;-51
2022/08/24 04:27:37;;;;;;;4.28;1.92;;;20.00;99.90;;;;;;4991838;28;20237;-51
2022/08/24 04:30:05;;;;;;;3.30;1.98;;;19.90;99.90;;;;;;4991835;28;20171;-51
2022/08/24 04:32:31;;;;;;;3.28;1.70;;;19.90;99.90;;;;;;4991871;28;20168;-52
2022/08/24 04:34:58;;;;;;;3.70;2.15;;;19.90;99.90;;;;;;4991891;28;20171;-52
2022/08/24 04:37:24;;;;;;;4.00;1.83;;;19.90;99.90;;;;;;4991727;28;20191;-52
2022/08/24 04:39:50;;;;;;;2.83;1.92;;;19.90;99.90;;;;;;4991815;28;20190;-52
2022/08/24 04:42:16;;;;;;;6.03;2.15;;;19.90;99.90;;;;;;4992005;28;20206;-52
2022/08/24 04:44:42;;;;;;;4.28;2.00;;;19.90;99.90;;;;;;4991658;28;20167;-52
2022/08/24 04:47:08;;;;;;;4.00;2.17;;;19.90;99.90;;;;;;4991694;28;20214;-52
2022/08/24 04:49:35;;;;;;;3.60;1.80;;;19.90;99.90;;;;;;4991778;28;20167;-52
2022/08/24 04:52:01;;;;;;;5.03;2.10;;;19.90;99.90;;;;;;4991574;28;20234;-52
2022/08/24 04:54:27;;;;;;;3.10;1.95;;;19.90;99.90;;;;;;4991648;28;20512;-52
2022/08/24 04:56:53;;;;;;;4.10;1.88;;;19.90;99.90;;;;;;4991765;28;20179;-52
2022/08/24 04:59:18;;;;;;;2.92;1.83;;;19.90;99.90;;;;;;4991515;28;20727;-52
2022/08/24 05:01:44;;;;;;;4.13;1.70;;;19.90;99.90;;;;;;4991775;28;20175;-52
2022/08/24 05:04:10;;;;;;;2.75;1.60;;;19.90;99.90;;;;;;4991550;28;20531;-52
2022/08/24 05:06:36;;;;;;;2.75;1.63;;;19.90;99.90;;;;;;4997325;28;20506;-52
2022/08/24 05:09:03;;;;;;;5.97;1.40;;;19.90;99.90;;;;;;4998008;28;20175;-52
2022/08/24 05:11:30;;;;;;;1.83;1.40;;;20.00;99.90;;;;;;4998112;28;20190;-52
2022/08/24 05:13:56;;;;;;;5.97;1.80;;;20.00;99.90;;;;;;4998209;28;20206;-52
2022/08/24 05:16:23;;;;;;;2.85;1.67;;;20.00;99.90;;;;;;4998011;28;20673;-52
2022/08/24 05:18:49;;;;;;;6.88;1.75;;;20.00;99.90;;;;;;4997974;28;20175;-52
2022/08/24 05:21:17;;;;;;;3.28;1.40;;;20.10;99.90;;;;;;4997832;28;20195;-53
2022/08/24 05:23:43;;;;;;;3.22;1.67;;;20.10;99.90;;;;;;4997876;28;20186;-53
2022/08/24 05:26:13;;;;;;;3.33;1.20;;;20.10;99.90;;;;;;4997685;28;20223;-51
2022/08/24 05:28:39;;;;;;;1.63;1.52;;;20.10;99.90;;;;;;4997924;28;20230;-53
2022/08/24 05:31:17;;;;;;;5.43;1.45;;;20.10;99.90;;;;;;4997827;28;20175;-52
2022/08/24 05:33:43;;;;;;;4.30;1.52;;;20.20;99.90;;;;;;4997686;28;20175;-52
2022/08/24 05:36:24;;;;;;;2.90;1.20;;;20.20;99.90;;;;;;4997774;28;20175;-52
2022/08/24 05:38:53;;;;;;;2.78;1.60;;;20.20;99.90;;;;;;4997714;28;20244;-52
2022/08/24 05:41:20;;;;;;;2.15;1.50;;;20.20;99.90;;;;;;4997854;28;20185;-52
2022/08/24 05:43:46;;;;;;;3.75;1.52;;;20.30;99.90;;;;;;4997748;28;20179;-52
2022/08/24 05:46:12;;;;;;;2.53;1.40;;;20.30;99.90;;;;;;4997628;28;20166;-52
2022/08/24 05:48:37;;;;;;;2.60;1.55;;;20.20;99.90;;;;;;4997544;28;20237;-52
2022/08/24 05:51:04;;;;;;;4.25;1.70;;;20.20;99.90;;;;;;4997599;28;20584;-51
2022/08/24 05:53:31;;;;;;;3.28;1.17;;;20.20;99.90;;;;;;4997562;28;20583;-52
2022/08/24 05:55:56;;;;;;;1.75;1.35;;;20.30;99.90;;;;;;4997568;28;20183;-52
2022/08/24 05:58:22;;;;;;;3.30;1.45;;;20.20;99.90;;;;;;4997639;28;20579;-51
2022/08/24 06:00:49;;;;;;;2.45;1.20;;;20.20;99.90;;;;;;4997454;28;20713;-55
2022/08/24 06:03:15;;;;;;;2.60;1.23;;;20.20;99.90;;;;;;4997569;28;20195;-52
2022/08/24 06:05:43;;;;;;;2.67;1.40;;;20.20;99.90;;;;;;4997421;28;20179;-51
2022/08/24 06:08:09;;;;;;;2.88;1.33;;;20.20;99.90;;;;;;4997309;28;20202;-52
2022/08/24 06:10:44;;;;;;;2.78;1.15;;;20.30;99.90;;;;;;4997464;28;20262;-52
2022/08/24 06:13:10;;;;;;;2.20;1.23;;;20.20;99.90;;;;;;4996092;28;20620;-51
2022/08/24 06:15:37;;;;;;;4.15;1.40;;;20.20;99.90;;;;;;4997339;28;20181;-52
2022/08/24 06:18:04;;;;;;;5.03;1.73;;;20.30;99.90;;;;;;4994574;28;20270;-51
2022/08/24 06:20:31;;;;;;;2.03;1.10;;;20.20;99.90;;;;;;4994373;28;20172;-52
2022/08/24 06:22:57;;;;;;;2.63;1.40;;;20.30;99.90;;;;;;4994171;28;20206;-52
2022/08/24 06:28:07;;;;;;;1.30;1.00;;;20.30;99.90;;;;;;4994049;28;20310;-52
2022/08/24 06:30:33;;;;;;;2.55;1.20;;;20.30;99.90;;;;;;4994083;28;20258;-52
2022/08/24 06:33:00;;;;;;;1.55;1.20;;;20.30;99.90;;;;;;4994153;28;20585;-51
2022/08/24 06:35:26;;;;;;;3.05;1.10;;;20.30;99.90;;;;;;4993929;28;20264;-52
2022/08/24 06:37:52;;;;;;;2.33;1.25;;;20.30;99.90;;;;;;4993913;28;20193;-51
2022/08/24 06:40:19;;;;;;;3.85;1.23;;;20.40;99.90;;;;;;4993911;28;20634;-52
2022/08/24 06:42:45;;;;;;;3.17;1.30;;;20.30;99.90;;;;;;4993689;28;20179;-52
2022/08/24 06:45:11;;;;;;;2.92;1.20;;;20.40;99.90;;;;;;4993847;28;20595;-52
2022/08/24 06:47:37;;;;;;;2.95;1.15;;;20.40;99.90;;;;;;4993679;28;20226;-51
2022/08/24 06:50:05;;;;;;;5.50;1.60;;;20.40;99.90;;;;;;4993621;28;20532;-52
2022/08/24 06:52:31;;;;;;;2.80;1.50;;;20.40;99.90;;;;;;4993538;28;20176;-52
2022/08/24 06:54:57;;;;;;;2.28;1.40;;;20.40;99.90;;;;;;4993584;28;20182;-52
2022/08/24 06:57:23;;;;;;;3.72;1.40;;;20.50;99.90;;;;;;4993545;28;20528;-52
2022/08/24 06:59:48;;;;;;;3.63;1.40;;;20.50;99.90;;;;;;4993746;28;20179;-52
2022/08/24 07:02:17;;;;;;;4.90;1.80;;;20.50;99.90;;;;;;4993523;28;20607;-52
2022/08/24 07:04:43;;;;;;;3.90;1.30;;;20.50;99.90;;;;;;4993321;28;20229;-52
2022/08/24 07:07:09;;;;;;;3.33;1.48;;;20.50;99.90;;;;;;4975751;28;20628;-52
2022/08/24 07:09:35;;;;;;;2.88;1.48;;;20.60;99.90;;;;;;4993264;28;20202;-52
2022/08/24 07:12:00;;;;;;;5.65;1.55;;;20.60;99.90;;;;;;4993474;28;20582;-52
2022/08/24 07:14:26;;;;;;;2.45;1.20;;;20.70;99.90;;;;;;4993131;28;20179;-52
2022/08/24 07:16:52;;;;;;;5.20;1.35;;;20.80;99.90;;;;;;4993098;28;20201;-52
2022/08/24 07:19:18;;;;;;;2.13;1.20;;;20.90;99.90;;;;;;4993152;28;20202;-52
2022/08/24 07:21:44;;;;;;;2.85;1.27;;;21.00;99.90;;;;;;4993164;28;20187;-52
2022/08/24 07:24:09;;;;;;;4.68;1.10;;;21.10;99.90;;;;;;4993061;28;20187;-51
2022/08/24 07:26:37;;;;;;;5.20;1.10;;;21.20;99.90;;;;;;4992873;28;20211;-52
2022/08/24 07:29:08;;;;;;;2.13;1.17;;;21.00;99.90;;;;;;4992533;28;20242;-52
2022/08/24 07:31:37;;;;;;;1.92;1.00;;;20.90;99.90;;;;;;4992898;28;20205;-52
2022/08/24 07:34:05;;;;;;;4.72;1.30;;;20.90;99.90;;;;;;4992836;28;20176;-52
2022/08/24 07:36:32;;;;;;;1.38;1.10;;;20.80;99.90;;;;;;4992757;28;20178;-52
2022/08/24 07:38:58;;;;;;;4.78;1.17;;;20.70;99.90;;;;;;4992722;28;20172;-52
2022/08/24 07:41:26;;;;;;;2.65;1.08;;;20.70;99.90;;;;;;4992600;28;20175;-53
2022/08/24 07:43:53;;;;;;;6.03;1.40;;;20.70;99.90;;;;;;4992775;28;20187;-52
2022/08/24 07:46:19;;;;;;;3.55;1.10;;;20.70;99.90;;;;;;4992648;28;20171;-52
2022/08/24 07:48:45;;;;;;;1.75;1.00;;;20.70;99.90;;;;;;4992557;28;20213;-52
2022/08/24 07:51:13;;;;;;;5.00;1.17;;;20.60;99.90;;;;;;4992472;28;20608;-52
2022/08/24 07:53:40;;;;;;;4.88;1.13;;;20.60;99.90;;;;;;4992670;28;20193;-51
2022/08/24 07:56:06;;;;;;;2.28;1.25;;;20.50;99.90;;;;;;4992518;28;20179;-52
2022/08/24 07:58:32;;;;;;;1.85;1.20;;;20.50;99.90;;;;;;4992505;28;20623;-52
2022/08/24 08:00:58;;;;;;;5.47;1.10;;;20.50;99.90;;;;;;4992324;28;20179;-52
2022/08/24 08:03:26;;;;;;;2.83;1.10;;;20.60;99.90;;;;;;4992334;28;20181;-52
2022/08/24 08:06:00;;;;;;;2.42;1.00;;;20.60;99.90;;;;;;4992175;28;20183;-52
2022/08/24 08:08:27;;;;;;;2.67;0.90;;;20.60;99.90;;;;;;4992292;28;20213;-52
2022/08/24 08:10:53;;;;;;;7.63;1.17;;;20.60;99.90;;;;;;4992337;28;20168;-52
2022/08/24 08:13:19;;;;;;;3.00;0.80;;;20.60;99.90;;;;;;4992122;28;20182;-52
2022/08/24 08:15:45;;;;;;;5.60;1.35;;;20.60;99.90;;;;;;4992232;28;20183;-52
2022/08/24 08:18:12;;;;;;;3.88;1.35;;;20.60;99.90;;;;;;4992051;28;20261;-52
2022/08/24 08:20:39;;;;;;;1.50;1.00;;;20.60;99.90;;;;;;4992125;28;20163;-52
2022/08/24 08:25:53;;;;;;;1.70;1.08;;;20.60;99.90;;;;;;4991799;28;20186;-52
2022/08/24 08:28:19;;;;;;;4.30;1.20;;;20.60;99.90;;;;;;4991831;28;20247;-52
2022/08/24 08:30:46;;;;;;;4.60;1.20;;;20.60;99.90;;;;;;4991860;28;20163;-51
2022/08/24 08:33:12;;;;;;;4.13;1.30;;;20.50;99.90;;;;;;4992106;28;20185;-52
2022/08/24 08:35:39;;;;;;;7.20;1.52;;;20.50;99.90;;;;;;4992113;28;20190;-52
2022/08/24 08:38:06;;;;;;;4.55;1.52;;;20.40;99.90;;;;;;4991898;28;20593;-52
2022/08/24 08:40:44;;;;;;;5.22;1.42;;;20.30;99.90;;;;;;4990911;28;20178;-52
2022/08/24 08:43:31;;;;;;;3.25;1.48;;;20.30;99.90;;;;;;4991735;28;20282;-52
2022/08/24 08:46:22;;;;;;;3.20;1.20;;;20.30;99.90;;;;;;4991776;28;20214;-52
2022/08/24 08:49:06;;;;;;;2.33;1.00;;;20.10;99.90;;;;;;4991645;28;20211;-52
2022/08/24 08:51:55;;;;;;;1.85;1.48;;;19.90;99.90;;;;;;4991612;28;20172;-52
2022/08/24 08:54:39;;;;;;;6.43;2.80;;;19.80;99.90;;;;;;4991819;28;20174;-52
2022/08/24 08:57:13;;;;;;;3.65;2.70;;;19.70;99.90;;;;;;4991624;28;20171;-52
2022/08/24 09:00:12;;;;;;;4.18;3.03;;;19.80;99.90;;;;;;4991523;28;20175;-53
2022/08/24 09:03:16;;;;;;;5.55;4.10;;;20.10;99.90;;;;;;4991672;28;20246;-52
2022/08/24 09:06:04;;;;;;;4.00;3.60;;;20.10;99.90;;;;;;4991874;28;20563;-52
2022/08/24 09:08:56;;;;;;;6.78;3.17;;;20.30;99.90;;;;;;4991457;28;20634;-52
2022/08/24 09:11:55;;;;;;;6.80;3.45;;;20.60;99.90;;;;;;4991480;28;20233;-52
2022/08/24 09:14:39;;;;;;;4.97;2.95;;;20.80;99.90;;;;;;4991548;28;20202;-52
2022/08/24 09:17:21;;;;;;;3.50;2.22;;;20.80;99.90;;;;;;4991423;28;20229;-52
2022/08/24 09:19:58;;;;;;;3.00;2.13;;;20.70;99.90;;;;;;4991590;28;20217;-53
2022/08/24 09:22:24;;;;;;;2.25;2.00;;;20.60;99.90;;;;;;4991466;28;20253;-52
2022/08/24 09:24:53;;;;;;;2.75;1.70;;;20.80;99.90;;;;;;4991335;28;20167;-53
2022/08/24 09:27:39;;;;;;;2.67;1.50;;;21.00;99.90;;;;;;4990910;28;20227;-52
2022/08/24 09:30:20;;;;;;;1.67;1.08;;;21.30;99.90;;;;;;4991243;28;20276;-53
2022/08/24 09:33:19;;;;;;;1.20;0.90;;;21.80;99.90;;;;;;4991164;28;20710;-53
2022/08/24 09:36:08;;;;;;;1.15;1.00;;;22.40;99.90;;;;;;4991285;28;20638;-52
2022/08/24 09:38:37;;;;;;;1.50;0.80;;;22.80;99.90;;;;;;4991219;28;20670;-53
2022/08/24 09:41:14;;;;;;;1.73;0.70;;;23.10;99.90;;;;;;4991190;28;20373;-52
2022/08/24 09:43:54;;;;;;;1.02;0.63;;;23.10;99.90;;;;;;4991203;28;20221;-53
2022/08/24 09:46:32;;;;;;;1.40;0.77;;;23.20;99.90;;;;;;4991073;28;20175;-52
2022/08/24 09:49:34;;;;;;;1.15;0.63;;;23.00;99.90;;;;;;4991095;28;20190;-52
2022/08/24 09:52:15;;;;;;;1.58;1.02;;;23.00;99.90;;;;;;4992975;28;20658;-52
2022/08/24 09:54:43;;;;;;;1.58;0.75;;;23.00;99.90;;;;;;4994868;28;20229;-52
2022/08/24 09:57:42;;;;;;;0.68;0.63;;;23.00;99.90;;;;;;4994896;28;20167;-52
2022/08/24 10:00:14;;;;;;;1.55;0.73;;;23.00;99.90;;;;;;4994913;28;20171;-52
2022/08/24 10:02:55;;;;;;;1.10;0.80;;;23.40;99.90;;;;;;4994900;28;20239;-52
2022/08/24 10:05:45;;;;;;;2.13;0.90;;;23.70;99.90;;;;;;4994664;28;20194;-53
2022/08/24 10:08:19;;;;;;;1.80;0.80;;;23.80;99.90;;;;;;4994552;28;20207;-52
2022/08/24 10:11:07;;;;;;;2.15;0.90;;;24.00;99.90;;;;;;4994389;28;20527;-53
2022/08/24 10:13:51;;;;;;;1.98;1.00;;;24.30;99.90;;;;;;4994654;28;20315;-53
2022/08/24 10:16:55;;;;;;;1.52;0.70;;;24.50;99.90;;;;;;4994409;28;20703;-53
2022/08/24 10:19:44;;;;;;;2.10;0.73;;;24.50;99.90;;;;;;4924438;28;20262;-53
2022/08/24 10:22:19;;;;;;;2.33;0.77;;;23.90;99.90;;;;;;4994315;28;20772;-52
2022/08/24 10:25:03;;;;;;;1.85;1.00;;;23.70;99.90;;;;;;4994337;28;20585;-53
2022/08/24 10:27:32;;;;;;;1.52;0.73;;;23.50;99.90;;;;;;4993972;28;20685;-53
2022/08/24 10:30:17;;;;;;;1.48;0.80;;;23.50;99.90;;;;;;4994159;28;20179;-53
2022/08/24 10:33:09;;;;;;;1.75;1.05;;;23.50;99.90;;;;;;4992819;28;20175;-52
2022/08/24 10:35:46;;;;;;;1.67;0.80;;;23.50;99.90;;;;;;4994130;28;20202;-52
2022/08/24 10:41:54;;;;;;;1.55;1.00;;;23.70;99.90;;;;;;4994142;28;20666;-53
2022/08/24 10:44:47;;;;;;;1.95;1.00;;;23.80;99.90;;;;;;4993810;28;20653;-52
2022/08/24 10:47:29;;;;;;;2.83;1.02;;;24.00;99.90;;;;;;4993916;28;20210;-53
2022/08/24 10:50:06;;;;;;;1.02;0.70;;;24.30;99.90;;;;;;4993910;28;20175;-53
2022/08/24 10:52:48;;;;;;;2.03;1.10;;;24.50;99.90;;;;;;4993629;28;20186;-52
2022/08/24 10:55:26;;;;;;;1.77;1.00;;;24.30;99.90;;;;;;4993896;28;20249;-52
2022/08/24 10:58:09;;;;;;;2.88;1.20;;;24.20;99.90;;;;;;4993567;28;20198;-53
2022/08/24 11:00:35;;;;;;;3.42;1.15;;;24.20;99.90;;;;;;4993633;28;20266;-53
2022/08/24 11:03:25;;;;;;;1.40;1.05;;;24.20;99.90;;;;;;4992601;28;20254;-54
2022/08/24 11:05:56;;;;;;;3.42;0.93;;;24.40;99.90;;;;;;4993431;28;20684;-53
2022/08/24 11:08:27;;;;;;;8.82;2.15;;;24.50;99.90;;;;;;4993430;28;20221;-53
2022/08/24 11:11:12;;;;;;;1.25;0.85;;;24.60;99.90;;;;;;4993606;28;20182;-53
2022/08/24 11:13:51;;;;;;;2.00;0.90;;;24.50;99.90;;;;;;4993545;28;20190;-53
2022/08/24 11:16:29;;;;;;;1.20;0.90;;;24.30;99.90;;;;;;4993479;28;20179;-53
2022/08/24 11:18:57;;;;;;;2.20;1.10;;;24.20;99.90;;;;;;4993446;28;20223;-53
2022/08/24 11:21:35;;;;;;;1.50;0.88;;;24.20;99.90;;;;;;4993396;28;20171;-53
2022/08/24 11:24:26;;;;;;;1.75;1.10;;;24.00;99.90;;;;;;4993441;28;20194;-53
2022/08/24 11:27:00;;;;;;;2.28;1.10;;;23.80;99.90;;;;;;4992916;28;20219;-53
2022/08/24 11:29:48;;;;;;;1.65;1.10;;;23.30;99.90;;;;;;4993245;28;20171;-53
2022/08/24 11:32:43;;;;;;;2.40;1.00;;;23.40;99.90;;;;;;4992968;28;20171;-53
2022/08/24 11:35:22;;;;;;;1.08;0.80;;;22.80;99.90;;;;;;4923484;28;20185;-53
2022/08/24 11:37:50;;;;;;;1.40;0.80;;;22.10;99.90;;;;;;4992813;28;20167;-53
2022/08/24 11:40:18;;;;;;;3.17;0.70;;;21.50;99.90;;;;;;4992843;28;20202;-53
2022/08/24 11:43:05;;;;;;;1.55;1.10;;;21.30;99.90;;;;;;4992853;28;20203;-51
2022/08/24 11:45:43;;;;;;;3.55;1.20;;;21.50;99.90;;;;;;4992801;28;20175;-53
2022/08/24 11:48:24;;;;;;;0.90;0.85;;;21.70;99.90;;;;;;4992550;28;20302;-53
2022/08/24 11:51:02;;;;;;;1.20;0.85;;;21.60;99.90;;;;;;4992718;28;20174;-53
2022/08/24 11:53:32;;;;;;;0.88;0.65;;;21.60;99.90;;;;;;4992614;28;20182;-53
2022/08/24 11:56:19;;;;;;;0.80;0.50;;;21.30;99.90;;;;;;4991306;28;20651;-53
2022/08/24 11:58:59;;;;;;;2.60;1.00;;;21.00;99.90;;;;;;4992787;28;20175;-54
2022/08/24 12:01:31;;;;;;;1.38;0.80;;;20.80;99.90;;;;;;4992549;28;20537;-54
2022/08/24 12:04:24;;;;;;;1.90;0.77;;;20.90;99.90;;;;;;4992719;28;20187;-53
2022/08/24 12:06:57;;;;;;;1.45;0.90;;;20.90;99.90;;;;;;4992363;28;20171;-54
2022/08/24 12:09:34;;;;;;;0.95;0.70;;;21.00;99.90;;;;;;4992366;28;20222;-54
2022/08/24 12:12:03;;;;;;;1.15;0.80;;;21.00;99.90;;;;;;4992388;28;20171;-53
2022/08/24 12:15:00;;;;;;;1.50;0.70;;;20.80;99.90;;;;;;4992166;28;20175;-53
2022/08/24 12:17:54;;;;;;;0.90;0.60;;;20.70;99.90;;;;;;4992369;28;20584;-54
2022/08/24 12:20:42;;;;;;;2.05;0.77;;;20.70;99.90;;;;;;4991984;28;20179;-54
2022/08/24 12:23:32;;;;;;;2.35;0.80;;;20.90;99.90;;;;;;4991999;28;20270;-54
2022/08/24 12:26:06;;;;;;;2.58;0.88;;;21.30;99.90;;;;;;4991856;28;20246;-53
2022/08/24 12:29:06;;;;;;;2.75;1.00;;;20.90;99.90;;;;;;4991699;28;20229;-53
2022/08/24 12:31:50;;;;;;;1.80;0.60;;;21.40;99.90;;;;;;4977809;28;20183;-53
2022/08/24 12:34:22;;;;;;;0.70;0.70;;;21.50;99.90;;;;;;4991952;28;20263;-53
2022/08/24 12:36:57;;;;;;;0.85;0.50;;;21.80;99.90;;;;;;4991807;28;20310;-53
2022/08/24 12:39:38;;;;;;;1.77;0.90;;;22.30;99.90;;;;;;4991836;28;20534;-53
2022/08/24 12:42:18;;;;;;;2.10;1.40;;;22.60;99.90;;;;;;4991824;28;20175;-53
2022/08/24 12:44:55;;;;;;;3.47;1.30;;;22.90;99.90;;;;;;4991857;28;20217;-53
2022/08/24 12:47:31;;;;;;;5.20;1.80;;;22.80;99.90;;;;;;4991713;28;20226;-53
2022/08/24 12:50:08;;;;;;;5.78;1.77;;;22.80;99.90;;;;;;4991755;28;20258;-53
2022/08/24 12:53:04;;;;;;;4.47;1.92;;;22.70;99.90;;;;;;4991714;28;20174;-53
2022/08/24 12:55:50;;;;;;;4.95;1.88;;;22.70;99.90;;;;;;4991617;28;20638;-53
2022/08/24 12:58:44;;;;;;;5.55;1.98;;;22.80;99.90;;;;;;4991019;28;20649;-53
2022/08/24 13:01:10;;;;;;;4.47;1.38;;;23.00;99.90;;;;;;4991713;28;20175;-53
2022/08/24 13:03:41;;;;;;;4.40;1.80;;;22.90;99.90;;;;;;4991663;28;20270;-53
2022/08/24 13:06:37;;;;;;;4.85;1.80;;;22.80;99.90;;;;;;4991556;28;20745;-53
2022/08/24 13:09:26;;;;;;;2.65;2.00;;;22.90;99.90;;;;;;4991573;28;20214;-53
2022/08/24 13:11:53;;;;;;;6.35;2.88;;;23.00;99.90;;;;;;4991418;28;20159;-53
2022/08/24 13:14:20;;;;;;;4.35;2.22;;;23.20;99.90;;;;;;4991398;28;20179;-53
2022/08/24 13:16:51;;;;;;;6.15;2.15;;;23.20;99.90;;;;;;4991666;28;20171;-53
2022/08/24 13:19:30;;;;;;;5.00;2.10;;;23.40;99.90;;;;;;4991552;28;20234;-53
2022/08/24 13:22:18;;;;;;;3.22;1.80;;;23.40;99.90;;;;;;4991339;28;20194;-53
2022/08/24 13:24:46;;;;;;;3.67;1.98;;;23.40;99.90;;;;;;4951332;28;20280;-53